sensor_id;sensor_type;location;lat;lon;timestamp;noise_LAeq;noise_LA_min;noise_LA_max;noise_LA01;noise_LA95
79288;Laerm;68737;53.946;27.634;2023-06-10T00:00:48;47.579987;43.008682;57.015457;;
79288;Laerm;68737;53.946;27.634;2023-06-10T00:03:18;50.552963;43.123451;60.177048;;
79288;Laerm;68737;53.946;27.634;2023-06-10T00:05:48;48.775002;44.293884;58.006104;;
79288;Laerm;68737;53.946;27.634;2023-06-10T00:08:18;47.684967;43.079391;53.768883;;
79288;Laerm;68737;53.946;27.634;2023-06-10T00:10:48;47.938232;43.922470;57.677841;;
79288;Laerm;68737;53.946;27.634;2023-06-10T00:13:18;47.326332;42.670273;51.251785;;
79288;Laerm;68737;53.946;27.634;2023-06-10T00:15:48;46.031082;42.772644;51.580406;;
79288;Laerm;68737;53.946;27.634;2023-06-10T00:18:18;48.608559;42.929962;59.492264;;
79288;Laerm;68737;53.946;27.634;2023-06-10T00:20:48;50.157532;43.923111;60.744106;;
79288;Laerm;68737;53.946;27.634;2023-06-10T00:23:18;48.147591;43.109344;60.964779;;
79288;Laerm;68737;53.946;27.634;2023-06-10T00:25:48;49.535133;44.679703;60.997231;;
79288;Laerm;68737;53.946;27.634;2023-06-10T00:28:18;48.872452;45.078140;56.658516;;
79288;Laerm;68737;53.946;27.634;2023-06-10T00:30:48;49.951897;46.220451;57.833519;;
79288;Laerm;68737;53.946;27.634;2023-06-10T00:33:18;49.586746;44.416245;55.460800;;
79288;Laerm;68737;53.946;27.634;2023-06-10T00:35:48;52.147820;44.476082;59.409798;;
79288;Laerm;68737;53.946;27.634;2023-06-10T00:38:18;47.531448;43.894905;55.536896;;
79288;Laerm;68737;53.946;27.634;2023-06-10T00:40:48;49.220367;44.417168;54.707336;;
79288;Laerm;68737;53.946;27.634;2023-06-10T00:43:18;49.255264;44.599045;57.910507;;
79288;Laerm;68737;53.946;27.634;2023-06-10T00:45:48;49.976044;44.219528;59.121960;;
79288;Laerm;68737;53.946;27.634;2023-06-10T00:48:18;50.696556;45.127464;57.428841;;
79288;Laerm;68737;53.946;27.634;2023-06-10T00:50:48;47.878143;43.662468;53.917953;;
79288;Laerm;68737;53.946;27.634;2023-06-10T00:53:18;48.150833;43.681526;56.883629;;
79288;Laerm;68737;53.946;27.634;2023-06-10T00:55:48;49.298347;44.062569;55.592598;;
79288;Laerm;68737;53.946;27.634;2023-06-10T00:58:18;48.903885;44.734390;54.865646;;
79288;Laerm;68737;53.946;27.634;2023-06-10T01:00:48;49.983635;44.915070;57.985130;;
79288;Laerm;68737;53.946;27.634;2023-06-10T01:03:18;50.774719;45.917046;61.772491;;
79288;Laerm;68737;53.946;27.634;2023-06-10T01:05:50;49.392502;44.121254;62.071415;;
79288;Laerm;68737;53.946;27.634;2023-06-10T01:13:18;50.489159;44.717743;58.171028;;
79288;Laerm;68737;53.946;27.634;2023-06-10T01:15:48;48.673164;43.187073;57.278618;;
79288;Laerm;68737;53.946;27.634;2023-06-10T01:18:18;47.637711;43.457062;52.808502;;
79288;Laerm;68737;53.946;27.634;2023-06-10T01:20:48;51.096565;45.160034;60.080101;;
79288;Laerm;68737;53.946;27.634;2023-06-10T01:23:18;51.492798;46.316338;61.410503;;
79288;Laerm;68737;53.946;27.634;2023-06-10T01:30:49;49.489914;45.393173;63.137436;;
79288;Laerm;68737;53.946;27.634;2023-06-10T01:33:18;52.624527;45.264397;63.091175;;
79288;Laerm;68737;53.946;27.634;2023-06-10T01:35:48;48.952499;44.751221;57.507256;;
79288;Laerm;68737;53.946;27.634;2023-06-10T01:38:18;49.338211;43.946434;57.210548;;
79288;Laerm;68737;53.946;27.634;2023-06-10T01:40:48;50.006973;44.322273;60.188843;;
79288;Laerm;68737;53.946;27.634;2023-06-10T01:43:19;48.652802;43.668701;57.095039;;
79288;Laerm;68737;53.946;27.634;2023-06-10T01:45:48;49.681343;44.265343;58.526123;;
79288;Laerm;68737;53.946;27.634;2023-06-10T01:48:18;51.488106;46.482994;59.828186;;
79288;Laerm;68737;53.946;27.634;2023-06-10T01:50:48;51.393440;46.016808;61.479988;;
79288;Laerm;68737;53.946;27.634;2023-06-10T01:53:18;48.325798;43.464363;57.457840;;
79288;Laerm;68737;53.946;27.634;2023-06-10T01:55:48;50.484276;43.886986;59.475895;;
79288;Laerm;68737;53.946;27.634;2023-06-10T01:58:18;50.530190;44.268608;65.940765;;
79288;Laerm;68737;53.946;27.634;2023-06-10T02:00:48;48.776657;42.451797;57.889854;;
79288;Laerm;68737;53.946;27.634;2023-06-10T02:03:18;50.364052;42.772942;72.795807;;
79288;Laerm;68737;53.946;27.634;2023-06-10T02:05:48;51.572441;42.549431;70.745697;;
79288;Laerm;68737;53.946;27.634;2023-06-10T02:08:18;48.986687;43.972610;56.994133;;
79288;Laerm;68737;53.946;27.634;2023-06-10T02:10:48;51.280754;44.023857;76.536346;;
79288;Laerm;68737;53.946;27.634;2023-06-10T02:13:18;49.407303;43.983406;74.914291;;
79288;Laerm;68737;53.946;27.634;2023-06-10T02:15:48;49.714317;44.000137;57.730072;;
79288;Laerm;68737;53.946;27.634;2023-06-10T02:18:18;49.359589;43.116577;58.656319;;
79288;Laerm;68737;53.946;27.634;2023-06-10T02:20:48;49.628700;45.139061;60.522629;;
79288;Laerm;68737;53.946;27.634;2023-06-10T02:23:18;49.958611;45.207863;59.495972;;
79288;Laerm;68737;53.946;27.634;2023-06-10T02:25:48;52.383629;45.264069;63.462292;;
79288;Laerm;68737;53.946;27.634;2023-06-10T02:28:18;50.301010;43.320938;63.512012;;
79288;Laerm;68737;53.946;27.634;2023-06-10T02:30:50;50.539146;44.769508;59.861862;;
79288;Laerm;68737;53.946;27.634;2023-06-10T02:33:18;53.179626;45.229073;61.554428;;
79288;Laerm;68737;53.946;27.634;2023-06-10T02:35:48;49.880867;44.674812;60.481716;;
79288;Laerm;68737;53.946;27.634;2023-06-10T02:38:18;50.996674;44.230309;60.699532;;
79288;Laerm;68737;53.946;27.634;2023-06-10T02:40:48;52.888069;44.268990;64.028130;;
79288;Laerm;68737;53.946;27.634;2023-06-10T02:43:18;48.794502;44.217766;59.980492;;
79288;Laerm;68737;53.946;27.634;2023-06-10T02:45:48;47.831322;43.022141;55.621956;;
79288;Laerm;68737;53.946;27.634;2023-06-10T02:48:18;49.163109;43.422867;56.764755;;
79288;Laerm;68737;53.946;27.634;2023-06-10T02:50:48;53.233139;43.463272;66.890533;;
79288;Laerm;68737;53.946;27.634;2023-06-10T02:53:18;52.788757;43.626869;66.876022;;
79288;Laerm;68737;53.946;27.634;2023-06-10T02:55:48;52.688911;46.372612;63.694748;;
79288;Laerm;68737;53.946;27.634;2023-06-10T02:58:18;50.727394;44.411171;59.178459;;
79288;Laerm;68737;53.946;27.634;2023-06-10T03:00:48;53.511024;46.789261;62.016392;;
79288;Laerm;68737;53.946;27.634;2023-06-10T03:03:18;51.101562;44.582024;59.869270;;
79288;Laerm;68737;53.946;27.634;2023-06-10T03:05:48;53.398499;44.578972;66.934425;;
79288;Laerm;68737;53.946;27.634;2023-06-10T03:08:18;54.010559;45.526375;64.764511;;
79288;Laerm;68737;53.946;27.634;2023-06-10T03:10:48;53.180077;46.114693;62.485130;;
79288;Laerm;68737;53.946;27.634;2023-06-10T03:13:18;51.232468;46.286270;58.708992;;
79288;Laerm;68737;53.946;27.634;2023-06-10T03:15:48;52.531319;46.756409;62.105736;;
79288;Laerm;68737;53.946;27.634;2023-06-10T03:18:18;49.395164;45.875137;58.061783;;
79288;Laerm;68737;53.946;27.634;2023-06-10T03:20:48;50.367050;44.861450;60.641506;;
79288;Laerm;68737;53.946;27.634;2023-06-10T03:23:18;56.063629;46.852859;66.626312;;
79288;Laerm;68737;53.946;27.634;2023-06-10T03:25:48;51.784370;46.322876;60.011829;;
79288;Laerm;68737;53.946;27.634;2023-06-10T03:28:18;51.459045;45.702003;58.956299;;
79288;Laerm;68737;53.946;27.634;2023-06-10T03:30:48;52.367531;46.993546;59.663761;;
79288;Laerm;68737;53.946;27.634;2023-06-10T03:33:18;52.382835;47.753059;58.583138;;
79288;Laerm;68737;53.946;27.634;2023-06-10T03:35:48;52.750549;45.633850;64.680283;;
79288;Laerm;68737;53.946;27.634;2023-06-10T03:38:18;53.218483;44.868652;62.421947;;
79288;Laerm;68737;53.946;27.634;2023-06-10T03:40:48;51.326942;46.711159;62.902969;;
79288;Laerm;68737;53.946;27.634;2023-06-10T03:43:18;50.012215;45.306778;59.357925;;
79288;Laerm;68737;53.946;27.634;2023-06-10T03:45:48;51.739700;46.490387;60.059780;;
79288;Laerm;68737;53.946;27.634;2023-06-10T03:48:18;51.311615;44.862740;59.637127;;
79288;Laerm;68737;53.946;27.634;2023-06-10T03:50:48;51.069565;46.313011;59.998268;;
79288;Laerm;68737;53.946;27.634;2023-06-10T03:53:18;51.901955;46.642548;59.943775;;
79288;Laerm;68737;53.946;27.634;2023-06-10T03:55:48;51.932137;45.984818;63.137093;;
79288;Laerm;68737;53.946;27.634;2023-06-10T03:58:18;52.170731;47.499390;59.471600;;
79288;Laerm;68737;53.946;27.634;2023-06-10T04:00:48;51.314674;46.860321;65.827591;;
79288;Laerm;68737;53.946;27.634;2023-06-10T04:03:18;52.177109;47.016319;59.402122;;
79288;Laerm;68737;53.946;27.634;2023-06-10T04:05:48;54.111488;47.335869;61.371895;;
79288;Laerm;68737;53.946;27.634;2023-06-10T04:08:18;52.654213;48.050049;60.358173;;
79288;Laerm;68737;53.946;27.634;2023-06-10T04:10:48;53.840446;47.362122;65.979370;;
79288;Laerm;68737;53.946;27.634;2023-06-10T04:13:18;52.976654;46.583519;62.636311;;
79288;Laerm;68737;53.946;27.634;2023-06-10T04:15:48;55.326355;46.921669;65.626244;;
79288;Laerm;68737;53.946;27.634;2023-06-10T04:18:20;54.098953;47.541039;63.708076;;
79288;Laerm;68737;53.946;27.634;2023-06-10T04:20:48;53.738289;48.368294;61.987400;;
79288;Laerm;68737;53.946;27.634;2023-06-10T04:23:18;54.807304;48.905479;62.575588;;
79288;Laerm;68737;53.946;27.634;2023-06-10T04:25:48;54.705391;48.524200;65.572487;;
79288;Laerm;68737;53.946;27.634;2023-06-10T04:28:18;53.385368;49.106392;62.179527;;
79288;Laerm;68737;53.946;27.634;2023-06-10T04:30:48;54.543755;47.733040;63.361774;;
79288;Laerm;68737;53.946;27.634;2023-06-10T04:33:18;55.953011;48.157257;67.311417;;
79288;Laerm;68737;53.946;27.634;2023-06-10T04:35:48;55.068748;48.828293;64.147118;;
79288;Laerm;68737;53.946;27.634;2023-06-10T04:38:19;54.836304;48.271667;61.715649;;
79288;Laerm;68737;53.946;27.634;2023-06-10T04:40:48;55.458542;48.824707;66.141235;;
79288;Laerm;68737;53.946;27.634;2023-06-10T04:43:18;55.841873;49.208450;63.181271;;
79288;Laerm;68737;53.946;27.634;2023-06-10T04:45:48;57.691399;50.462791;67.008850;;
79288;Laerm;68737;53.946;27.634;2023-06-10T04:48:18;55.037506;50.117554;61.745457;;
79288;Laerm;68737;53.946;27.634;2023-06-10T04:50:48;55.535362;49.323799;66.664551;;
79288;Laerm;68737;53.946;27.634;2023-06-10T04:53:18;56.541115;51.346222;63.078346;;
79288;Laerm;68737;53.946;27.634;2023-06-10T04:55:48;53.440094;48.306366;59.418751;;
79288;Laerm;68737;53.946;27.634;2023-06-10T04:58:18;54.984489;49.326180;61.175724;;
79288;Laerm;68737;53.946;27.634;2023-06-10T05:00:48;56.388489;50.132339;64.014351;;
79288;Laerm;68737;53.946;27.634;2023-06-10T05:03:18;57.012566;49.861832;63.841171;;
79288;Laerm;68737;53.946;27.634;2023-06-10T05:05:48;53.914757;48.936394;65.561935;;
79288;Laerm;68737;53.946;27.634;2023-06-10T05:08:18;57.088257;50.374100;65.592865;;
79288;Laerm;68737;53.946;27.634;2023-06-10T05:10:48;54.951950;49.057220;69.560890;;
79288;Laerm;68737;53.946;27.634;2023-06-10T05:13:18;55.072456;49.360298;64.028458;;
79288;Laerm;68737;53.946;27.634;2023-06-10T05:15:48;56.737175;48.727921;67.605141;;
79288;Laerm;68737;53.946;27.634;2023-06-10T05:18:18;56.319725;50.764488;64.805008;;
79288;Laerm;68737;53.946;27.634;2023-06-10T05:20:48;54.974113;49.192749;61.808723;;
79288;Laerm;68737;53.946;27.634;2023-06-10T05:23:18;54.474304;49.240089;64.283478;;
79288;Laerm;68737;53.946;27.634;2023-06-10T05:25:48;55.720612;49.436058;65.237015;;
79288;Laerm;68737;53.946;27.634;2023-06-10T05:28:18;54.320564;48.654076;62.585175;;
79288;Laerm;68737;53.946;27.634;2023-06-10T05:30:48;57.801315;49.515915;74.867844;;
79288;Laerm;68737;53.946;27.634;2023-06-10T05:33:18;55.492981;49.084618;69.177078;;
79288;Laerm;68737;53.946;27.634;2023-06-10T05:35:48;55.025345;49.330818;70.145096;;
79288;Laerm;68737;53.946;27.634;2023-06-10T05:38:18;54.635429;49.126923;63.710232;;
79288;Laerm;68737;53.946;27.634;2023-06-10T05:40:48;56.380669;49.819069;66.374954;;
79288;Laerm;68737;53.946;27.634;2023-06-10T05:43:18;55.715179;49.734337;62.831528;;
79288;Laerm;68737;53.946;27.634;2023-06-10T05:45:48;54.228249;48.661690;62.708256;;
79288;Laerm;68737;53.946;27.634;2023-06-10T05:48:18;55.400063;49.923737;62.094307;;
79288;Laerm;68737;53.946;27.634;2023-06-10T05:50:48;54.716644;48.524391;62.329155;;
79288;Laerm;68737;53.946;27.634;2023-06-10T05:53:18;55.232544;49.689339;67.751671;;
79288;Laerm;68737;53.946;27.634;2023-06-10T05:55:48;56.893654;49.930260;70.658966;;
79288;Laerm;68737;53.946;27.634;2023-06-10T05:58:18;55.216537;48.480057;64.014816;;
79288;Laerm;68737;53.946;27.634;2023-06-10T06:00:48;55.445099;48.998306;63.743351;;
79288;Laerm;68737;53.946;27.634;2023-06-10T06:03:18;55.155060;50.006401;60.940636;;
79288;Laerm;68737;53.946;27.634;2023-06-10T06:05:48;54.847740;49.015877;61.217937;;
79288;Laerm;68737;53.946;27.634;2023-06-10T06:08:18;58.563988;52.081528;67.754959;;
79288;Laerm;68737;53.946;27.634;2023-06-10T06:10:48;55.501923;50.380730;61.403736;;
79288;Laerm;68737;53.946;27.634;2023-06-10T06:13:18;58.420181;51.226036;70.560219;;
79288;Laerm;68737;53.946;27.634;2023-06-10T06:15:48;55.451492;49.827034;67.977242;;
79288;Laerm;68737;53.946;27.634;2023-06-10T06:18:18;55.979759;49.890068;63.154755;;
79288;Laerm;68737;53.946;27.634;2023-06-10T06:20:48;56.397278;50.063721;63.405903;;
79288;Laerm;68737;53.946;27.634;2023-06-10T06:23:17;57.167305;51.495140;62.960785;;
79288;Laerm;68737;53.946;27.634;2023-06-10T06:25:47;56.666321;51.565201;63.634266;;
79288;Laerm;68737;53.946;27.634;2023-06-10T06:28:19;55.237091;50.494080;60.935371;;
79288;Laerm;68737;53.946;27.634;2023-06-10T06:30:49;55.539024;50.772583;70.368187;;
79288;Laerm;68737;53.946;27.634;2023-06-10T06:33:17;54.771400;49.643639;61.774765;;
79288;Laerm;68737;53.946;27.634;2023-06-10T06:35:47;57.028641;49.602554;69.282295;;
79288;Laerm;68737;53.946;27.634;2023-06-10T06:38:17;56.141983;49.520638;66.630981;;
79288;Laerm;68737;53.946;27.634;2023-06-10T06:40:47;55.351341;49.563515;65.021973;;
79288;Laerm;68737;53.946;27.634;2023-06-10T06:43:18;56.627243;50.955879;66.053391;;
79288;Laerm;68737;53.946;27.634;2023-06-10T06:45:47;57.090828;52.070610;65.703842;;
79288;Laerm;68737;53.946;27.634;2023-06-10T06:48:17;57.006660;49.226204;68.419678;;
79288;Laerm;68737;53.946;27.634;2023-06-10T06:50:47;59.672054;49.409271;83.531876;;
79288;Laerm;68737;53.946;27.634;2023-06-10T06:53:17;58.600563;51.624237;69.935822;;
79288;Laerm;68737;53.946;27.634;2023-06-10T06:55:47;56.624901;49.160927;75.550735;;
79288;Laerm;68737;53.946;27.634;2023-06-10T06:58:17;54.900047;48.576393;68.313828;;
79288;Laerm;68737;53.946;27.634;2023-06-10T07:00:47;57.691360;48.851410;78.702255;;
79288;Laerm;68737;53.946;27.634;2023-06-10T07:03:17;56.088745;50.257553;62.484653;;
79288;Laerm;68737;53.946;27.634;2023-06-10T07:05:47;54.661674;49.241135;61.364883;;
79288;Laerm;68737;53.946;27.634;2023-06-10T07:08:17;58.703178;49.889282;74.171860;;
79288;Laerm;68737;53.946;27.634;2023-06-10T07:10:47;57.485359;51.290054;65.622665;;
79288;Laerm;68737;53.946;27.634;2023-06-10T07:13:17;55.953285;48.867874;63.149708;;
79288;Laerm;68737;53.946;27.634;2023-06-10T07:15:47;54.551270;49.254868;60.982101;;
79288;Laerm;68737;53.946;27.634;2023-06-10T07:18:17;56.963020;50.190460;65.826836;;
79288;Laerm;68737;53.946;27.634;2023-06-10T07:20:47;57.185921;49.726837;66.339233;;
79288;Laerm;68737;53.946;27.634;2023-06-10T07:23:17;56.277817;50.536545;64.287048;;
79288;Laerm;68737;53.946;27.634;2023-06-10T07:25:47;54.911987;49.753410;63.883495;;
79288;Laerm;68737;53.946;27.634;2023-06-10T07:28:17;56.383606;49.476379;73.098503;;
79288;Laerm;68737;53.946;27.634;2023-06-10T07:30:47;59.355698;50.939911;75.444504;;
79288;Laerm;68737;53.946;27.634;2023-06-10T07:33:17;57.663116;50.185936;68.483055;;
79288;Laerm;68737;53.946;27.634;2023-06-10T07:35:47;58.087486;51.157959;69.188400;;
79288;Laerm;68737;53.946;27.634;2023-06-10T07:38:17;57.960701;49.900284;69.500824;;
79288;Laerm;68737;53.946;27.634;2023-06-10T07:40:47;59.189701;52.415352;73.359268;;
79288;Laerm;68737;53.946;27.634;2023-06-10T07:43:17;55.880318;50.280098;65.287575;;
79288;Laerm;68737;53.946;27.634;2023-06-10T07:45:47;57.779602;51.550743;69.093613;;
79288;Laerm;68737;53.946;27.634;2023-06-10T07:48:17;58.196167;50.962883;67.999878;;
79288;Laerm;68737;53.946;27.634;2023-06-10T07:50:47;58.377930;51.485779;71.409454;;
79288;Laerm;68737;53.946;27.634;2023-06-10T07:53:17;57.134773;51.453712;66.538544;;
79288;Laerm;68737;53.946;27.634;2023-06-10T07:55:47;56.620872;51.584938;60.933880;;
79288;Laerm;68737;53.946;27.634;2023-06-10T07:58:17;56.655853;51.800629;72.720932;;
79288;Laerm;68737;53.946;27.634;2023-06-10T08:00:47;54.890877;48.819916;63.632988;;
79288;Laerm;68737;53.946;27.634;2023-06-10T08:03:17;58.164131;49.744781;68.518356;;
79288;Laerm;68737;53.946;27.634;2023-06-10T08:05:48;56.179268;49.387001;64.978195;;
79288;Laerm;68737;53.946;27.634;2023-06-10T08:08:17;55.776871;49.405731;62.582481;;
79288;Laerm;68737;53.946;27.634;2023-06-10T08:10:47;56.712372;50.932747;65.244263;;
79288;Laerm;68737;53.946;27.634;2023-06-10T08:13:17;57.398476;51.098648;63.357113;;
79288;Laerm;68737;53.946;27.634;2023-06-10T08:15:47;57.439667;51.843895;67.478729;;
79288;Laerm;68737;53.946;27.634;2023-06-10T08:18:17;56.408585;48.389481;64.375626;;
79288;Laerm;68737;53.946;27.634;2023-06-10T08:20:47;55.911362;49.141159;65.059174;;
79288;Laerm;68737;53.946;27.634;2023-06-10T08:23:17;55.405663;49.889389;67.164818;;
79288;Laerm;68737;53.946;27.634;2023-06-10T08:25:47;58.779541;51.862122;67.802856;;
79288;Laerm;68737;53.946;27.634;2023-06-10T08:28:18;55.916908;49.366920;61.505169;;
79288;Laerm;68737;53.946;27.634;2023-06-10T08:30:47;57.684097;51.808815;65.099243;;
79288;Laerm;68737;53.946;27.634;2023-06-10T08:33:17;56.476379;51.299034;62.676090;;
79288;Laerm;68737;53.946;27.634;2023-06-10T08:35:47;56.477242;49.269859;64.291550;;
79288;Laerm;68737;53.946;27.634;2023-06-10T08:38:17;55.114677;48.953110;62.975597;;
79288;Laerm;68737;53.946;27.634;2023-06-10T08:40:47;56.220024;50.414078;65.081680;;
79288;Laerm;68737;53.946;27.634;2023-06-10T08:45:48;56.991165;49.452927;65.571014;;
79288;Laerm;68737;53.946;27.634;2023-06-10T08:48:17;55.155479;49.442406;62.044960;;
79288;Laerm;68737;53.946;27.634;2023-06-10T08:50:47;56.277672;50.331314;62.824875;;
79288;Laerm;68737;53.946;27.634;2023-06-10T08:53:18;57.112434;50.152725;62.625301;;
79288;Laerm;68737;53.946;27.634;2023-06-10T08:55:49;57.011635;49.282425;69.059052;;
79288;Laerm;68737;53.946;27.634;2023-06-10T08:58:18;54.175636;48.860359;62.181305;;
79288;Laerm;68737;53.946;27.634;2023-06-10T09:00:47;56.646385;50.745079;65.533539;;
79288;Laerm;68737;53.946;27.634;2023-06-10T09:03:17;55.702286;51.135201;63.589294;;
79288;Laerm;68737;53.946;27.634;2023-06-10T09:05:48;56.946022;50.998909;64.605873;;
79288;Laerm;68737;53.946;27.634;2023-06-10T09:08:17;58.496536;53.493034;66.730850;;
79288;Laerm;68737;53.946;27.634;2023-06-10T09:10:47;57.118088;49.952156;68.508621;;
79288;Laerm;68737;53.946;27.634;2023-06-10T09:13:17;56.733109;50.041763;70.933685;;
79288;Laerm;68737;53.946;27.634;2023-06-10T09:15:48;57.712601;52.242065;65.395493;;
79288;Laerm;68737;53.946;27.634;2023-06-10T09:18:17;56.441956;50.406700;62.343227;;
79288;Laerm;68737;53.946;27.634;2023-06-10T09:20:47;55.959602;51.128136;66.847763;;
79288;Laerm;68737;53.946;27.634;2023-06-10T09:23:17;55.356194;49.703896;63.272198;;
79288;Laerm;68737;53.946;27.634;2023-06-10T09:25:53;55.853165;49.794136;63.006138;;
79288;Laerm;68737;53.946;27.634;2023-06-10T09:28:17;56.077888;51.471558;65.213631;;
79288;Laerm;68737;53.946;27.634;2023-06-10T09:30:47;57.472649;51.366257;66.542877;;
79288;Laerm;68737;53.946;27.634;2023-06-10T09:33:17;59.284199;52.682777;70.315323;;
79288;Laerm;68737;53.946;27.634;2023-06-10T09:35:48;58.621384;50.974442;71.136902;;
79288;Laerm;68737;53.946;27.634;2023-06-10T09:40:52;56.484810;51.516907;63.691063;;
79288;Laerm;68737;53.946;27.634;2023-06-10T09:43:17;57.214081;50.788757;77.837479;;
79288;Laerm;68737;53.946;27.634;2023-06-10T09:45:51;56.556953;49.574776;63.990414;;
79288;Laerm;68737;53.946;27.634;2023-06-10T09:48:17;57.288506;50.501129;65.308273;;
79288;Laerm;68737;53.946;27.634;2023-06-10T09:50:48;56.078339;50.019501;62.770332;;
79288;Laerm;68737;53.946;27.634;2023-06-10T09:53:17;55.299873;47.809258;61.696743;;
79288;Laerm;68737;53.946;27.634;2023-06-10T09:55:47;56.822586;49.546745;68.672974;;
79288;Laerm;68737;53.946;27.634;2023-06-10T09:58:17;56.690262;49.674850;64.599915;;
79288;Laerm;68737;53.946;27.634;2023-06-10T10:00:52;56.869308;50.460213;65.956726;;
79288;Laerm;68737;53.946;27.634;2023-06-10T10:05:47;56.262970;51.368454;66.596687;;
79288;Laerm;68737;53.946;27.634;2023-06-10T10:08:17;55.579483;50.392250;61.604042;;
79288;Laerm;68737;53.946;27.634;2023-06-10T10:10:47;56.677979;51.148949;66.928040;;
79288;Laerm;68737;53.946;27.634;2023-06-10T10:13:17;57.031067;49.364189;69.079414;;
79288;Laerm;68737;53.946;27.634;2023-06-10T10:15:47;57.755852;51.241432;69.860573;;
79288;Laerm;68737;53.946;27.634;2023-06-10T10:18:17;56.629761;50.484886;78.037689;;
79288;Laerm;68737;53.946;27.634;2023-06-10T10:20:49;58.716843;52.441177;65.932632;;
79288;Laerm;68737;53.946;27.634;2023-06-10T10:23:18;58.808105;50.307442;67.573845;;
79288;Laerm;68737;53.946;27.634;2023-06-10T10:25:49;58.894661;51.207474;65.493370;;
79288;Laerm;68737;53.946;27.634;2023-06-10T10:28:17;55.767609;48.282310;62.252224;;
79288;Laerm;68737;53.946;27.634;2023-06-10T10:30:52;57.769157;50.152214;68.860321;;
79288;Laerm;68737;53.946;27.634;2023-06-10T10:35:47;62.082760;50.650261;74.221878;;
79288;Laerm;68737;53.946;27.634;2023-06-10T10:38:17;60.307842;50.720505;72.232681;;
79288;Laerm;68737;53.946;27.634;2023-06-10T10:40:47;58.461227;50.783211;74.600853;;
79288;Laerm;68737;53.946;27.634;2023-06-10T10:43:17;58.102043;49.343658;70.397537;;
79288;Laerm;68737;53.946;27.634;2023-06-10T10:45:57;57.438545;50.086769;69.922806;;
79288;Laerm;68737;53.946;27.634;2023-06-10T10:48:17;57.288338;50.927429;63.326569;;
79288;Laerm;68737;53.946;27.634;2023-06-10T10:50:55;56.233864;49.904587;71.881432;;
79288;Laerm;68737;53.946;27.634;2023-06-10T10:53:19;55.487549;49.799591;62.273918;;
79288;Laerm;68737;53.946;27.634;2023-06-10T10:55:57;56.784485;51.510078;70.135048;;
79288;Laerm;68737;53.946;27.634;2023-06-10T10:58:17;58.213440;51.839798;67.740479;;
79288;Laerm;68737;53.946;27.634;2023-06-10T11:00:47;56.874260;50.398613;69.948029;;
79288;Laerm;68737;53.946;27.634;2023-06-10T11:03:17;56.657242;50.323524;70.251892;;
79288;Laerm;68737;53.946;27.634;2023-06-10T11:05:48;58.441742;50.983536;77.649704;;
79288;Laerm;68737;53.946;27.634;2023-06-10T11:13:19;56.796295;49.106697;70.599609;;
79288;Laerm;68737;53.946;27.634;2023-06-10T11:15:48;58.274635;49.614769;70.722221;;
79288;Laerm;68737;53.946;27.634;2023-06-10T11:25:47;56.078102;50.046432;68.167427;;
79288;Laerm;68737;53.946;27.634;2023-06-10T11:28:17;54.822212;48.943481;61.270039;;
79288;Laerm;68737;53.946;27.634;2023-06-10T11:30:47;55.267715;47.656784;67.990692;;
79288;Laerm;68737;53.946;27.634;2023-06-10T11:33:17;58.435455;49.845467;71.633133;;
79288;Laerm;68737;53.946;27.634;2023-06-10T11:35:47;55.525795;49.438263;63.482243;;
79288;Laerm;68737;53.946;27.634;2023-06-10T11:38:17;55.687782;48.391945;63.298450;;
79288;Laerm;68737;53.946;27.634;2023-06-10T11:43:17;55.645416;49.867332;64.302963;;
79288;Laerm;68737;53.946;27.634;2023-06-10T11:45:47;56.202255;50.119072;64.919876;;
79288;Laerm;68737;53.946;27.634;2023-06-10T11:48:17;58.064972;50.156631;65.917969;;
79288;Laerm;68737;53.946;27.634;2023-06-10T11:50:47;56.703323;48.602600;76.712967;;
79288;Laerm;68737;53.946;27.634;2023-06-10T11:53:17;58.343903;50.716591;69.068619;;
79288;Laerm;68737;53.946;27.634;2023-06-10T11:55:48;55.607597;49.858978;64.795723;;
79288;Laerm;68737;53.946;27.634;2023-06-10T11:58:18;55.960167;49.400276;71.698700;;
79288;Laerm;68737;53.946;27.634;2023-06-10T12:03:17;54.412682;49.132027;64.415596;;
79288;Laerm;68737;53.946;27.634;2023-06-10T12:08:17;57.533134;51.298141;66.091766;;
79288;Laerm;68737;53.946;27.634;2023-06-10T12:10:47;55.663002;48.847328;61.497620;;
79288;Laerm;68737;53.946;27.634;2023-06-10T12:13:17;54.800072;48.486671;61.087139;;
79288;Laerm;68737;53.946;27.634;2023-06-10T12:15:47;55.511612;49.659920;76.915932;;
79288;Laerm;68737;53.946;27.634;2023-06-10T12:20:47;57.525970;51.718987;69.117157;;
79288;Laerm;68737;53.946;27.634;2023-06-10T12:23:17;58.601051;52.848747;66.267326;;
79288;Laerm;68737;53.946;27.634;2023-06-10T12:28:17;54.968910;49.274971;60.146763;;
79288;Laerm;68737;53.946;27.634;2023-06-10T12:30:47;57.526215;51.264191;66.575821;;
79288;Laerm;68737;53.946;27.634;2023-06-10T12:33:18;55.948738;49.336525;64.233429;;